This is the latest recevied weather packets stored in our database for station/object K6QM-1. If no packets are shown the sender has not sent any weather packets the latest 1 day(s).
| Time | Temp. | Humidity | Pressure | Rain* | Wind** | Luminosity | Snow |
|---|---|---|---|---|---|---|---|
| 1777909250 | 16.67° C | 57% | 1018 hPa | - | - | - | - |
| 1777908350 | 16.67° C | 57% | 1017.9 hPa | - | - | - | - |
| 1777907449 | 15.56° C | 59% | 1016.7 hPa | - | - | - | - |
| 1777906549 | 13.89° C | 60% | 1014.8 hPa | - | - | - | - |
| 1777905648 | 15.56° C | 62% | 1017.6 hPa | - | - | - | - |
| 1777904748 | 15.56° C | 62% | 1017.5 hPa | - | - | - | - |
| 1777903848 | 15° C | 63% | 1017.5 hPa | - | - | - | - |
| 1777902948 | 15° C | 64% | 1017.4 hPa | - | - | - | - |
| 1777902048 | 15° C | 64% | 1017.5 hPa | - | - | - | - |
| 1777901148 | 15° C | 63% | 1017.3 hPa | - | - | - | - |
| 1777898448 | 15° C | 64% | 1017.1 hPa | - | - | - | - |
| 1777897548 | 15° C | 64% | 1017.2 hPa | - | - | - | - |
| 1777896648 | 15.56° C | 64% | 1017.1 hPa | - | - | - | - |
| 1777895748 | 15.56° C | 63% | 1017.2 hPa | - | - | - | - |
| 1777894848 | 15.56° C | 62% | 1017.2 hPa | - | - | - | - |
| 1777893947 | 15.56° C | 62% | 1017.3 hPa | - | - | - | - |
| 1777892147 | 15.56° C | 61% | 1017.1 hPa | - | - | - | - |
| 1777891247 | 15.56° C | 61% | 1017.1 hPa | - | - | - | - |
| 1777890347 | 15.56° C | 61% | 1017 hPa | - | - | - | - |
| 1777888547 | 15.56° C | 60% | 1016.9 hPa | - | - | - | - |
| 1777887647 | 15.56° C | 61% | 1016.8 hPa | - | - | - | - |
| 1777886747 | 16.11° C | 63% | 1017 hPa | - | - | - | - |
| 1777885847 | 16.11° C | 63% | 1017 hPa | - | - | - | - |
| 1777884947 | 16.11° C | 63% | 1017 hPa | - | - | - | - |
| 1777884047 | 16.11° C | 62% | 1017.1 hPa | - | - | - | - |
* Rain since midnight (hover to see other rain measurements)
** Current wind speed in m/s (hover to see current wind gust speed)